• Join FlightAware (Why Join?)
  • Login
  • US Flag 
02:28PM EDT


 

Airport Tracker/Info


-or-


 

Live Flight TrackerFlight Track Log ✈ AAY893A ✈ 06-May-2013 ✈ KYNG - KPIE

Flight Track Log - Related Links

Times and Time Zones

All times are in EDT time to prevent confusion due to time zone crossing. See the AAY893A flight status page for this flight to view local times or setup timezone preferences in your user account.

Time Position Orientation Groundspeed Altitude Reporting Facility
EDT Latitude Longitude Course Direction KTS MPH feet Rate Location/Type
01:36AM 32.8353 -82.3142 182° South 65 75 34,000  Level Jacksonville Center
01:38AM 32.6489 -82.3237 182° South  Level FlightAware Approximate
01:45AM 31.9863 -82.3768 184° South  Level Estimated
01:46AM 31.8916 -82.3831 183° South  Level FlightAware Approximate
01:47AM 31.7969 -82.3894 183° South  Level FlightAware Approximate
01:48AM 31.7022 -82.3957 183° South  Level FlightAware Approximate
01:49AM 31.6074 -82.4019 183° South  Level FlightAware Approximate
01:50AM 31.5127 -82.4082 183° South  Level FlightAware Approximate
01:51AM 31.4180 -82.4144 183° South  Level FlightAware Approximate
01:52AM 31.3233 -82.4206 183° South  Level FlightAware Approximate
01:53AM 31.2286 -82.4268 183° South  Level FlightAware Approximate
01:54AM 31.1338 -82.4330 183° South  Level FlightAware Approximate
01:55AM 31.0391 -82.4392 183° South  Level FlightAware Approximate
01:56AM 30.9444 -82.4454 183° South  Level FlightAware Approximate
01:57AM 30.8497 -82.4516 183° South  Level FlightAware Approximate
01:58AM 30.7550 -82.4577 183° South  Level FlightAware Approximate
01:59AM 30.6603 -82.4656 188° South  Level Estimated
02:00AM 30.5657 -82.4734 185° South  Level Estimated
02:01AM 30.4713 -82.4837 185° South  Level FlightAware Approximate
02:02AM 30.3768 -82.4939 185° South  Level FlightAware Approximate
02:03AM 30.2823 -82.5042 185° South  Level FlightAware Approximate
02:04AM 30.1877 -82.5116 180° South  Level Estimated
02:05AM 30.0930 -82.5191 185° South  Level Estimated
02:06AM 29.9984 -82.5261 184° South  Level FlightAware Approximate
02:07AM 29.9037 -82.5335 187° South  Level Estimated
02:08AM 29.8092 -82.5427 185° South  Level FlightAware Approximate
02:09AM 29.7145 -82.5500 182° South  Level Estimated
02:10AM 29.6197 -82.5540 182° South  Level FlightAware Approximate
02:11AM 29.5249 -82.5580 182° South  Level FlightAware Approximate
02:12AM 29.4301 -82.5619 182° South  Level FlightAware Approximate
02:13AM 29.3355 -82.5698 187° South  Level Estimated
02:14AM 29.2411 -82.5805 186° South  Level FlightAware Approximate
02:15AM 29.1467 -82.5910 186° South  Level FlightAware Approximate
02:16AM 29.0520 -82.5985 180° South  Level Estimated
02:17AM 28.9574 -82.6059 190° South  Level Estimated
02:18AM 28.8627 -82.6134 180° South  Level Estimated
02:19AM 28.7681 -82.6208 180° South  Level Estimated
02:20AM 28.6735 -82.6282 185° South  Level Estimated
02:21AM 28.5788 -82.6356 184° South  Level Estimated
02:22AM 28.4841 -82.6408 183° South  Level FlightAware Approximate
02:23AM 28.3893 -82.6460 183° South  Level FlightAware Approximate
02:24AM 28.2947 -82.6542 185° South  Level Estimated
02:25AM 28.2001 -82.6624 180° South  Level Estimated
02:26AM 28.1055 -82.6706 180° South  Level Estimated
02:27AM 28.0109 -82.6787 190° South  Level Estimated
02:28AM 27.9163 -82.6869 190° South  Level Estimated
02:29AM 27.9100 -82.6874 190° South  Level Estimated
02:30AM 27.9100 -82.6874 190° South  Level Estimated
02:31AM 27.9100 -82.6874 190° South  Level Estimated
02:32AM 27.9100 -82.6874 190° South  Level Estimated
02:33AM 27.9100 -82.6874 190° South  Level Estimated
02:34AM 27.9100 -82.6874 190° South  Level Estimated
02:35AM 27.9100 -82.6874 190° South  Level Estimated
02:36AM 27.9100 -82.6874 190° South  Level Estimated
02:37AM 27.9100 -82.6874 190° South  Level Estimated
02:38AM 27.9100 -82.6874 190° South  Level Estimated
02:39AM 27.9100 -82.6874 190° South  Level Estimated
02:40AM 27.9100 -82.6874 190° South  Level Estimated
02:41AM 27.9100 -82.6874 190° South  Level Estimated
02:42AM 27.9100 -82.6874 190° South  Level Estimated